sensor_id;sensor_type;location;lat;lon;timestamp;pressure;altitude;pressure_sealevel;temperature;humidity
85023;BME280;75348;43.126;-2.538;2024-03-08T00:00:12;98247.56;;;9.20;82.54
85023;BME280;75348;43.126;-2.538;2024-03-08T00:02:42;98250.69;;;9.44;81.53
85023;BME280;75348;43.126;-2.538;2024-03-08T00:05:10;98253.66;;;9.21;80.86
85023;BME280;75348;43.126;-2.538;2024-03-08T00:07:38;98230.69;;;9.07;84.25
85023;BME280;75348;43.126;-2.538;2024-03-08T00:10:07;98235.88;;;9.15;84.91
85023;BME280;75348;43.126;-2.538;2024-03-08T00:12:45;98216.16;;;8.82;82.68
85023;BME280;75348;43.126;-2.538;2024-03-08T00:15:15;98259.59;;;8.94;85.44
85023;BME280;75348;43.126;-2.538;2024-03-08T00:17:45;98245.91;;;8.76;86.88
85023;BME280;75348;43.126;-2.538;2024-03-08T00:20:14;98243.09;;;8.92;85.13
85023;BME280;75348;43.126;-2.538;2024-03-08T00:22:41;98226.13;;;8.72;88.90
85023;BME280;75348;43.126;-2.538;2024-03-08T00:25:09;98235.53;;;8.60;85.64
85023;BME280;75348;43.126;-2.538;2024-03-08T00:27:37;98202.34;;;8.43;86.77
85023;BME280;75348;43.126;-2.538;2024-03-08T00:30:06;98200.06;;;8.26;86.36
85023;BME280;75348;43.126;-2.538;2024-03-08T00:32:33;98203.38;;;8.43;86.77
85023;BME280;75348;43.126;-2.538;2024-03-08T00:35:01;98212.47;;;8.54;85.96
85023;BME280;75348;43.126;-2.538;2024-03-08T00:37:28;98204.19;;;8.43;86.73
85023;BME280;75348;43.126;-2.538;2024-03-08T00:39:55;98150.16;;;8.17;88.70
85023;BME280;75348;43.126;-2.538;2024-03-08T00:42:22;98146.38;;;8.19;86.69
85023;BME280;75348;43.126;-2.538;2024-03-08T00:44:51;98143.81;;;8.26;86.86
85023;BME280;75348;43.126;-2.538;2024-03-08T00:47:19;98148.47;;;8.24;88.00
85023;BME280;75348;43.126;-2.538;2024-03-08T00:49:46;98136.72;;;8.41;86.02
85023;BME280;75348;43.126;-2.538;2024-03-08T00:52:13;98133.53;;;8.31;87.17
85023;BME280;75348;43.126;-2.538;2024-03-08T00:54:41;98126.38;;;8.53;88.77
85023;BME280;75348;43.126;-2.538;2024-03-08T00:57:10;98105.63;;;8.50;85.22
85023;BME280;75348;43.126;-2.538;2024-03-08T00:59:38;98119.72;;;8.29;86.05
85023;BME280;75348;43.126;-2.538;2024-03-08T01:02:06;98123.34;;;8.28;86.52
85023;BME280;75348;43.126;-2.538;2024-03-08T01:04:33;98134.56;;;8.30;85.90
85023;BME280;75348;43.126;-2.538;2024-03-08T01:07:00;98137.63;;;8.19;87.38
85023;BME280;75348;43.126;-2.538;2024-03-08T01:09:27;98138.47;;;8.34;86.66
85023;BME280;75348;43.126;-2.538;2024-03-08T01:11:55;98144.56;;;8.34;84.16
85023;BME280;75348;43.126;-2.538;2024-03-08T01:14:23;98133.72;;;8.29;84.39
85023;BME280;75348;43.126;-2.538;2024-03-08T01:16:50;98106.16;;;8.32;86.66
85023;BME280;75348;43.126;-2.538;2024-03-08T01:19:17;98118.44;;;8.68;81.79
85023;BME280;75348;43.126;-2.538;2024-03-08T01:21:44;98105.56;;;8.79;82.34
85023;BME280;75348;43.126;-2.538;2024-03-08T01:24:11;98121.00;;;8.61;86.35
85023;BME280;75348;43.126;-2.538;2024-03-08T01:26:38;98124.63;;;8.60;84.38
85023;BME280;75348;43.126;-2.538;2024-03-08T01:29:06;98134.66;;;8.50;83.83
85023;BME280;75348;43.126;-2.538;2024-03-08T01:31:33;98112.19;;;8.89;80.49
85023;BME280;75348;43.126;-2.538;2024-03-08T01:34:00;98113.53;;;8.50;82.39
85023;BME280;75348;43.126;-2.538;2024-03-08T01:36:27;98088.63;;;8.88;78.16
85023;BME280;75348;43.126;-2.538;2024-03-08T01:38:54;98110.16;;;9.06;79.30
85023;BME280;75348;43.126;-2.538;2024-03-08T01:41:21;98096.81;;;8.93;80.64
85023;BME280;75348;43.126;-2.538;2024-03-08T01:43:48;98112.06;;;8.97;78.37
85023;BME280;75348;43.126;-2.538;2024-03-08T01:46:19;98110.25;;;9.33;76.16
85023;BME280;75348;43.126;-2.538;2024-03-08T01:48:49;98103.13;;;9.33;76.93
85023;BME280;75348;43.126;-2.538;2024-03-08T01:51:18;98067.41;;;9.17;75.15
85023;BME280;75348;43.126;-2.538;2024-03-08T01:53:46;98110.31;;;9.60;74.24
85023;BME280;75348;43.126;-2.538;2024-03-08T01:56:14;98078.66;;;9.46;75.32
85023;BME280;75348;43.126;-2.538;2024-03-08T01:58:42;98086.50;;;9.60;75.65
85023;BME280;75348;43.126;-2.538;2024-03-08T02:01:15;98098.28;;;9.58;74.25
85023;BME280;75348;43.126;-2.538;2024-03-08T02:03:44;98080.28;;;9.68;72.89
85023;BME280;75348;43.126;-2.538;2024-03-08T02:06:12;98074.03;;;9.96;70.29
85023;BME280;75348;43.126;-2.538;2024-03-08T02:08:41;98075.59;;;9.70;74.62
85023;BME280;75348;43.126;-2.538;2024-03-08T02:11:09;98069.81;;;9.60;75.07
85023;BME280;75348;43.126;-2.538;2024-03-08T02:13:37;98063.34;;;9.62;72.10
85023;BME280;75348;43.126;-2.538;2024-03-08T02:16:04;98051.81;;;9.97;70.59
85023;BME280;75348;43.126;-2.538;2024-03-08T02:18:34;98057.81;;;9.84;72.68
85023;BME280;75348;43.126;-2.538;2024-03-08T02:21:03;98068.84;;;9.88;72.07
85023;BME280;75348;43.126;-2.538;2024-03-08T02:23:32;98069.38;;;9.77;73.51
85023;BME280;75348;43.126;-2.538;2024-03-08T02:25:59;98064.06;;;9.77;71.34
85023;BME280;75348;43.126;-2.538;2024-03-08T02:28:27;98047.03;;;9.59;74.69
85023;BME280;75348;43.126;-2.538;2024-03-08T02:30:54;98048.78;;;9.73;71.24
85023;BME280;75348;43.126;-2.538;2024-03-08T02:33:24;98034.34;;;9.75;70.70
85023;BME280;75348;43.126;-2.538;2024-03-08T02:35:51;98036.75;;;9.70;71.26
85023;BME280;75348;43.126;-2.538;2024-03-08T02:38:20;98004.84;;;9.51;73.93
85023;BME280;75348;43.126;-2.538;2024-03-08T02:40:49;98029.91;;;9.82;70.93
85023;BME280;75348;43.126;-2.538;2024-03-08T02:43:18;98015.84;;;9.75;72.54
85023;BME280;75348;43.126;-2.538;2024-03-08T02:45:45;98022.81;;;9.89;70.63
85023;BME280;75348;43.126;-2.538;2024-03-08T02:48:13;98021.47;;;9.66;73.17
85023;BME280;75348;43.126;-2.538;2024-03-08T02:50:41;98023.06;;;9.67;73.29
85023;BME280;75348;43.126;-2.538;2024-03-08T02:53:09;98021.84;;;9.63;71.35
85023;BME280;75348;43.126;-2.538;2024-03-08T02:55:38;98004.66;;;9.52;73.01
85023;BME280;75348;43.126;-2.538;2024-03-08T02:58:06;98003.09;;;9.58;72.01
85023;BME280;75348;43.126;-2.538;2024-03-08T03:00:38;98008.81;;;9.61;72.13
85023;BME280;75348;43.126;-2.538;2024-03-08T03:03:08;98012.97;;;9.70;71.39
85023;BME280;75348;43.126;-2.538;2024-03-08T03:05:35;98011.31;;;9.69;70.71
85023;BME280;75348;43.126;-2.538;2024-03-08T03:08:03;98001.88;;;9.60;70.07
85023;BME280;75348;43.126;-2.538;2024-03-08T03:10:36;97997.50;;;9.46;72.80
85023;BME280;75348;43.126;-2.538;2024-03-08T03:13:04;98000.53;;;9.43;73.34
85023;BME280;75348;43.126;-2.538;2024-03-08T03:15:35;98003.28;;;9.56;71.51
85023;BME280;75348;43.126;-2.538;2024-03-08T03:18:04;98004.50;;;9.33;73.14
85023;BME280;75348;43.126;-2.538;2024-03-08T03:20:35;98002.75;;;9.19;76.18
85023;BME280;75348;43.126;-2.538;2024-03-08T03:23:11;97995.56;;;9.13;72.87
85023;BME280;75348;43.126;-2.538;2024-03-08T03:25:42;98000.28;;;9.18;72.32
85023;BME280;75348;43.126;-2.538;2024-03-08T03:28:09;98001.69;;;9.34;71.55
85023;BME280;75348;43.126;-2.538;2024-03-08T03:30:38;98013.16;;;9.48;71.43
85023;BME280;75348;43.126;-2.538;2024-03-08T03:33:06;98013.09;;;9.41;71.15
85023;BME280;75348;43.126;-2.538;2024-03-08T03:35:37;98008.19;;;9.38;71.60
85023;BME280;75348;43.126;-2.538;2024-03-08T03:38:04;98000.59;;;9.50;69.78
85023;BME280;75348;43.126;-2.538;2024-03-08T03:40:38;98008.06;;;9.46;70.12
85023;BME280;75348;43.126;-2.538;2024-03-08T03:43:06;98003.69;;;9.32;70.71
85023;BME280;75348;43.126;-2.538;2024-03-08T03:45:34;97997.38;;;9.54;70.80
85023;BME280;75348;43.126;-2.538;2024-03-08T03:48:05;98002.34;;;9.43;70.10
85023;BME280;75348;43.126;-2.538;2024-03-08T03:50:34;97999.16;;;9.27;69.71
85023;BME280;75348;43.126;-2.538;2024-03-08T03:53:03;98009.75;;;9.27;72.47
85023;BME280;75348;43.126;-2.538;2024-03-08T03:55:30;97999.56;;;9.51;68.19
85023;BME280;75348;43.126;-2.538;2024-03-08T03:57:57;97991.09;;;9.34;70.13
85023;BME280;75348;43.126;-2.538;2024-03-08T04:00:26;97979.66;;;9.28;71.18
85023;BME280;75348;43.126;-2.538;2024-03-08T04:02:54;97986.34;;;9.51;69.94
85023;BME280;75348;43.126;-2.538;2024-03-08T04:05:21;97989.66;;;9.11;71.52
85023;BME280;75348;43.126;-2.538;2024-03-08T04:07:48;97991.25;;;8.85;75.01
85023;BME280;75348;43.126;-2.538;2024-03-08T04:10:15;97985.44;;;8.75;74.46
85023;BME280;75348;43.126;-2.538;2024-03-08T04:12:42;97986.69;;;8.58;75.90
85023;BME280;75348;43.126;-2.538;2024-03-08T04:15:09;97980.31;;;8.53;75.65
85023;BME280;75348;43.126;-2.538;2024-03-08T04:17:38;97983.09;;;8.66;73.23
85023;BME280;75348;43.126;-2.538;2024-03-08T04:20:06;97969.84;;;8.59;75.09
85023;BME280;75348;43.126;-2.538;2024-03-08T04:22:42;97973.44;;;8.52;74.07
85023;BME280;75348;43.126;-2.538;2024-03-08T04:25:11;97983.50;;;8.63;76.91
85023;BME280;75348;43.126;-2.538;2024-03-08T04:27:38;97972.19;;;8.69;74.79
85023;BME280;75348;43.126;-2.538;2024-03-08T04:30:06;97975.50;;;8.56;77.08
85023;BME280;75348;43.126;-2.538;2024-03-08T04:32:36;97983.22;;;8.23;79.98
85023;BME280;75348;43.126;-2.538;2024-03-08T04:35:05;97975.66;;;8.20;78.55
85023;BME280;75348;43.126;-2.538;2024-03-08T04:37:32;97973.66;;;7.93;79.27
85023;BME280;75348;43.126;-2.538;2024-03-08T04:39:59;97968.97;;;8.17;80.04
85023;BME280;75348;43.126;-2.538;2024-03-08T04:42:28;97970.19;;;8.36;77.88
85023;BME280;75348;43.126;-2.538;2024-03-08T04:44:56;97959.75;;;8.48;76.98
85023;BME280;75348;43.126;-2.538;2024-03-08T04:47:24;97972.44;;;8.39;78.35
85023;BME280;75348;43.126;-2.538;2024-03-08T04:49:52;97952.25;;;8.45;76.57
85023;BME280;75348;43.126;-2.538;2024-03-08T04:52:20;97963.75;;;8.80;74.10
85023;BME280;75348;43.126;-2.538;2024-03-08T04:54:49;97951.66;;;8.50;77.17
85023;BME280;75348;43.126;-2.538;2024-03-08T04:57:16;97965.31;;;8.53;75.57
85023;BME280;75348;43.126;-2.538;2024-03-08T04:59:46;97945.78;;;8.69;74.47
85023;BME280;75348;43.126;-2.538;2024-03-08T05:02:13;97940.28;;;8.49;75.54
85023;BME280;75348;43.126;-2.538;2024-03-08T05:04:40;97947.56;;;8.27;79.03
85023;BME280;75348;43.126;-2.538;2024-03-08T05:07:07;97944.94;;;7.69;80.88
85023;BME280;75348;43.126;-2.538;2024-03-08T05:09:34;97943.41;;;7.75;80.26
85023;BME280;75348;43.126;-2.538;2024-03-08T05:12:03;97960.41;;;7.72;80.67
85023;BME280;75348;43.126;-2.538;2024-03-08T05:14:30;97967.50;;;7.57;82.70
85023;BME280;75348;43.126;-2.538;2024-03-08T05:16:57;97955.28;;;7.85;81.52
85023;BME280;75348;43.126;-2.538;2024-03-08T05:19:24;97952.66;;;7.71;81.62
85023;BME280;75348;43.126;-2.538;2024-03-08T05:21:51;97946.38;;;7.29;82.34
85023;BME280;75348;43.126;-2.538;2024-03-08T05:24:18;97946.53;;;7.13;83.87
85023;BME280;75348;43.126;-2.538;2024-03-08T05:26:46;97944.47;;;6.86;85.22
85023;BME280;75348;43.126;-2.538;2024-03-08T05:29:13;97939.78;;;6.74;86.00
85023;BME280;75348;43.126;-2.538;2024-03-08T05:31:49;97941.84;;;6.86;84.95
85023;BME280;75348;43.126;-2.538;2024-03-08T05:34:17;97935.56;;;6.87;86.70
85023;BME280;75348;43.126;-2.538;2024-03-08T05:36:44;97943.06;;;6.76;86.74
85023;BME280;75348;43.126;-2.538;2024-03-08T05:39:15;97941.19;;;7.21;84.58
85023;BME280;75348;43.126;-2.538;2024-03-08T05:41:43;97943.38;;;7.32;84.32
85023;BME280;75348;43.126;-2.538;2024-03-08T05:44:12;97944.03;;;6.97;84.67
85023;BME280;75348;43.126;-2.538;2024-03-08T05:46:39;97933.91;;;7.08;84.72
85023;BME280;75348;43.126;-2.538;2024-03-08T05:49:07;97943.16;;;6.82;87.35
85023;BME280;75348;43.126;-2.538;2024-03-08T05:51:38;97938.56;;;6.99;86.53
85023;BME280;75348;43.126;-2.538;2024-03-08T05:54:10;97938.72;;;6.61;88.02
85023;BME280;75348;43.126;-2.538;2024-03-08T05:56:40;97927.97;;;6.48;87.90
85023;BME280;75348;43.126;-2.538;2024-03-08T05:59:12;97930.50;;;6.11;89.93
85023;BME280;75348;43.126;-2.538;2024-03-08T06:01:40;97936.25;;;6.37;91.01
85023;BME280;75348;43.126;-2.538;2024-03-08T06:04:09;97925.47;;;6.02;90.97
85023;BME280;75348;43.126;-2.538;2024-03-08T06:06:38;97944.75;;;6.17;90.32
85023;BME280;75348;43.126;-2.538;2024-03-08T06:09:07;97939.94;;;6.28;89.87
85023;BME280;75348;43.126;-2.538;2024-03-08T06:11:44;97933.66;;;6.07;90.95
85023;BME280;75348;43.126;-2.538;2024-03-08T06:14:11;97938.31;;;5.97;91.89
85023;BME280;75348;43.126;-2.538;2024-03-08T06:16:38;97946.34;;;5.95;91.38
85023;BME280;75348;43.126;-2.538;2024-03-08T06:19:05;97941.84;;;6.12;90.87
85023;BME280;75348;43.126;-2.538;2024-03-08T06:21:32;97946.72;;;5.84;91.51
85023;BME280;75348;43.126;-2.538;2024-03-08T06:23:59;97920.56;;;5.53;92.40
85023;BME280;75348;43.126;-2.538;2024-03-08T06:26:27;97933.03;;;5.51;93.79
85023;BME280;75348;43.126;-2.538;2024-03-08T06:28:59;97932.34;;;5.57;92.88
85023;BME280;75348;43.126;-2.538;2024-03-08T06:31:26;97929.44;;;5.36;93.50
85023;BME280;75348;43.126;-2.538;2024-03-08T06:33:53;97928.94;;;5.40;94.50
85023;BME280;75348;43.126;-2.538;2024-03-08T06:36:23;97934.19;;;5.48;93.25
85023;BME280;75348;43.126;-2.538;2024-03-08T06:38:50;97916.47;;;5.42;94.16
85023;BME280;75348;43.126;-2.538;2024-03-08T06:41:18;97927.63;;;5.52;94.08
85023;BME280;75348;43.126;-2.538;2024-03-08T06:43:46;97916.31;;;5.36;94.05
85023;BME280;75348;43.126;-2.538;2024-03-08T06:46:17;97910.06;;;5.45;93.68
85023;BME280;75348;43.126;-2.538;2024-03-08T06:48:44;97918.25;;;5.50;93.98
85023;BME280;75348;43.126;-2.538;2024-03-08T06:51:13;97910.00;;;5.61;93.53
85023;BME280;75348;43.126;-2.538;2024-03-08T06:53:41;97914.31;;;5.54;94.13
85023;BME280;75348;43.126;-2.538;2024-03-08T06:56:08;97905.47;;;5.39;93.49
85023;BME280;75348;43.126;-2.538;2024-03-08T06:58:35;97908.09;;;5.47;94.34
85023;BME280;75348;43.126;-2.538;2024-03-08T07:01:03;97915.13;;;5.54;94.79
85023;BME280;75348;43.126;-2.538;2024-03-08T07:03:35;97896.78;;;5.84;95.04
85023;BME280;75348;43.126;-2.538;2024-03-08T07:06:02;97901.38;;;5.90;93.60
85023;BME280;75348;43.126;-2.538;2024-03-08T07:08:30;97889.88;;;5.83;94.74
85023;BME280;75348;43.126;-2.538;2024-03-08T07:10:57;97879.75;;;5.80;93.59
85023;BME280;75348;43.126;-2.538;2024-03-08T07:13:26;97887.34;;;5.98;93.34
85023;BME280;75348;43.126;-2.538;2024-03-08T07:15:56;97888.19;;;5.98;94.10
85023;BME280;75348;43.126;-2.538;2024-03-08T07:18:23;97889.00;;;6.88;90.54
85023;BME280;75348;43.126;-2.538;2024-03-08T07:20:50;97882.00;;;8.72;82.01
85023;BME280;75348;43.126;-2.538;2024-03-08T07:23:17;97861.06;;;9.52;77.66
85023;BME280;75348;43.126;-2.538;2024-03-08T07:26:10;97863.31;;;10.86;72.34
85023;BME280;75348;43.126;-2.538;2024-03-08T07:28:37;97859.94;;;10.14;72.22
85023;BME280;75348;43.126;-2.538;2024-03-08T07:31:04;97844.56;;;10.81;72.19
85023;BME280;75348;43.126;-2.538;2024-03-08T07:33:43;97847.75;;;10.25;72.17
85023;BME280;75348;43.126;-2.538;2024-03-08T07:36:11;97834.16;;;11.18;70.54
85023;BME280;75348;43.126;-2.538;2024-03-08T07:38:38;97827.22;;;12.61;66.25
85023;BME280;75348;43.126;-2.538;2024-03-08T07:41:05;97823.16;;;13.31;62.64
85023;BME280;75348;43.126;-2.538;2024-03-08T07:43:32;97812.66;;;13.89;60.16
85023;BME280;75348;43.126;-2.538;2024-03-08T07:45:59;97815.03;;;12.78;63.96
85023;BME280;75348;43.126;-2.538;2024-03-08T07:48:27;97807.28;;;13.60;65.60
85023;BME280;75348;43.126;-2.538;2024-03-08T07:50:54;97808.97;;;14.08;63.03
85023;BME280;75348;43.126;-2.538;2024-03-08T07:53:22;97799.53;;;13.59;66.44
85023;BME280;75348;43.126;-2.538;2024-03-08T07:55:51;97794.78;;;12.77;66.66
85023;BME280;75348;43.126;-2.538;2024-03-08T07:58:18;97804.16;;;12.24;62.83
85023;BME280;75348;43.126;-2.538;2024-03-08T08:00:45;97803.50;;;13.32;61.92
85023;BME280;75348;43.126;-2.538;2024-03-08T08:03:12;97792.34;;;12.99;56.94
85023;BME280;75348;43.126;-2.538;2024-03-08T08:05:40;97791.66;;;12.86;54.85
85023;BME280;75348;43.126;-2.538;2024-03-08T08:08:10;97797.59;;;11.96;59.34
85023;BME280;75348;43.126;-2.538;2024-03-08T08:10:38;97805.41;;;11.85;57.52
85023;BME280;75348;43.126;-2.538;2024-03-08T08:13:05;97808.69;;;12.17;59.74
85023;BME280;75348;43.126;-2.538;2024-03-08T08:15:32;97804.50;;;12.34;58.60
85023;BME280;75348;43.126;-2.538;2024-03-08T08:18:02;97804.59;;;12.52;58.81
85023;BME280;75348;43.126;-2.538;2024-03-08T08:20:33;97806.41;;;12.21;57.78
85023;BME280;75348;43.126;-2.538;2024-03-08T08:23:00;97803.25;;;12.67;54.23
85023;BME280;75348;43.126;-2.538;2024-03-08T08:25:27;97814.91;;;13.57;54.72
85023;BME280;75348;43.126;-2.538;2024-03-08T08:27:54;97798.47;;;12.51;56.67
85023;BME280;75348;43.126;-2.538;2024-03-08T08:30:21;97812.97;;;12.18;55.70
85023;BME280;75348;43.126;-2.538;2024-03-08T08:32:48;97811.03;;;12.01;56.03
85023;BME280;75348;43.126;-2.538;2024-03-08T08:35:16;97814.56;;;11.89;57.79
85023;BME280;75348;43.126;-2.538;2024-03-08T08:37:45;97815.50;;;11.57;60.47
85023;BME280;75348;43.126;-2.538;2024-03-08T08:40:12;97798.19;;;11.48;57.16
85023;BME280;75348;43.126;-2.538;2024-03-08T08:42:44;97813.22;;;11.67;58.05
85023;BME280;75348;43.126;-2.538;2024-03-08T08:45:15;97821.63;;;12.07;55.75
85023;BME280;75348;43.126;-2.538;2024-03-08T08:47:51;97797.47;;;12.15;56.47
85023;BME280;75348;43.126;-2.538;2024-03-08T08:50:18;97806.84;;;11.81;56.25
85023;BME280;75348;43.126;-2.538;2024-03-08T08:52:50;97800.09;;;12.22;53.96
85023;BME280;75348;43.126;-2.538;2024-03-08T08:55:18;97796.28;;;12.05;55.90
85023;BME280;75348;43.126;-2.538;2024-03-08T08:57:48;97799.59;;;12.00;54.77
85023;BME280;75348;43.126;-2.538;2024-03-08T09:00:16;97791.97;;;11.73;58.51
85023;BME280;75348;43.126;-2.538;2024-03-08T09:02:43;97788.66;;;11.84;58.72
85023;BME280;75348;43.126;-2.538;2024-03-08T09:05:10;97800.25;;;11.96;55.44
85023;BME280;75348;43.126;-2.538;2024-03-08T09:07:44;97796.63;;;11.78;60.27
85023;BME280;75348;43.126;-2.538;2024-03-08T09:10:14;97785.69;;;11.61;58.33
85023;BME280;75348;43.126;-2.538;2024-03-08T09:12:44;97780.13;;;11.76;57.19
85023;BME280;75348;43.126;-2.538;2024-03-08T09:15:11;97790.75;;;11.76;57.63
85023;BME280;75348;43.126;-2.538;2024-03-08T09:17:40;97777.53;;;11.63;57.27
85023;BME280;75348;43.126;-2.538;2024-03-08T09:20:09;97789.50;;;11.72;57.83
85023;BME280;75348;43.126;-2.538;2024-03-08T09:22:37;97794.81;;;12.46;55.61
85023;BME280;75348;43.126;-2.538;2024-03-08T09:25:04;97789.41;;;14.14;50.67
85023;BME280;75348;43.126;-2.538;2024-03-08T09:27:32;97789.97;;;14.34;47.72
85023;BME280;75348;43.126;-2.538;2024-03-08T09:30:04;97788.63;;;15.29;46.83
85023;BME280;75348;43.126;-2.538;2024-03-08T09:32:34;97784.19;;;15.34;46.12
85023;BME280;75348;43.126;-2.538;2024-03-08T09:35:01;97782.81;;;14.46;47.91
85023;BME280;75348;43.126;-2.538;2024-03-08T09:37:29;97769.63;;;15.76;45.15
85023;BME280;75348;43.126;-2.538;2024-03-08T09:39:56;97769.38;;;16.44;42.68
85023;BME280;75348;43.126;-2.538;2024-03-08T09:42:26;97769.31;;;17.04;43.98
85023;BME280;75348;43.126;-2.538;2024-03-08T09:44:53;97763.38;;;17.19;42.50
85023;BME280;75348;43.126;-2.538;2024-03-08T09:47:22;97772.03;;;17.80;40.86
85023;BME280;75348;43.126;-2.538;2024-03-08T09:49:51;97781.81;;;16.39;43.47
85023;BME280;75348;43.126;-2.538;2024-03-08T09:52:20;97759.41;;;15.61;44.07
85023;BME280;75348;43.126;-2.538;2024-03-08T09:54:48;97764.63;;;13.96;50.33
85023;BME280;75348;43.126;-2.538;2024-03-08T09:57:16;97748.47;;;13.79;51.25
85023;BME280;75348;43.126;-2.538;2024-03-08T09:59:46;97761.97;;;13.49;52.37
85023;BME280;75348;43.126;-2.538;2024-03-08T10:02:15;97752.25;;;13.72;51.17
85023;BME280;75348;43.126;-2.538;2024-03-08T10:04:44;97744.22;;;14.48;51.81
85023;BME280;75348;43.126;-2.538;2024-03-08T10:07:14;97733.13;;;14.85;47.80
85023;BME280;75348;43.126;-2.538;2024-03-08T10:09:41;97723.44;;;16.63;43.82
85023;BME280;75348;43.126;-2.538;2024-03-08T10:12:15;97721.31;;;16.82;42.01
85023;BME280;75348;43.126;-2.538;2024-03-08T10:14:42;97705.84;;;17.38;42.97
85023;BME280;75348;43.126;-2.538;2024-03-08T10:17:10;97737.03;;;16.46;42.83
85023;BME280;75348;43.126;-2.538;2024-03-08T10:19:37;97717.03;;;16.81;40.40
85023;BME280;75348;43.126;-2.538;2024-03-08T10:22:04;97708.00;;;17.03;41.57
85023;BME280;75348;43.126;-2.538;2024-03-08T10:24:31;97702.16;;;17.65;40.06
85023;BME280;75348;43.126;-2.538;2024-03-08T10:27:04;97704.88;;;16.41;45.34
85023;BME280;75348;43.126;-2.538;2024-03-08T10:29:34;97708.66;;;17.10;41.80
85023;BME280;75348;43.126;-2.538;2024-03-08T10:32:01;97696.53;;;15.54;44.22
85023;BME280;75348;43.126;-2.538;2024-03-08T10:34:29;97689.41;;;14.86;46.24
85023;BME280;75348;43.126;-2.538;2024-03-08T10:37:03;97718.38;;;14.71;47.14
85023;BME280;75348;43.126;-2.538;2024-03-08T10:39:37;97716.69;;;14.25;47.72
85023;BME280;75348;43.126;-2.538;2024-03-08T10:42:04;97675.22;;;13.88;51.12
85023;BME280;75348;43.126;-2.538;2024-03-08T10:45:50;97702.94;;;14.39;48.42
85023;BME280;75348;43.126;-2.538;2024-03-08T10:48:43;97709.72;;;13.66;50.08
85023;BME280;75348;43.126;-2.538;2024-03-08T10:50:44;97681.69;;;13.34;50.36
85023;BME280;75348;43.126;-2.538;2024-03-08T10:53:18;97714.22;;;13.00;50.02
85023;BME280;75348;43.126;-2.538;2024-03-08T10:55:49;97697.69;;;13.63;49.73
85023;BME280;75348;43.126;-2.538;2024-03-08T10:58:17;97698.31;;;13.47;50.36
85023;BME280;75348;43.126;-2.538;2024-03-08T11:00:44;97697.03;;;13.68;51.36
85023;BME280;75348;43.126;-2.538;2024-03-08T11:03:46;97703.19;;;14.95;48.21
85023;BME280;75348;43.126;-2.538;2024-03-08T11:06:29;97691.03;;;16.16;45.31
85023;BME280;75348;43.126;-2.538;2024-03-08T11:08:56;97688.31;;;16.76;43.21
85023;BME280;75348;43.126;-2.538;2024-03-08T11:11:28;97688.25;;;14.94;48.54
85023;BME280;75348;43.126;-2.538;2024-03-08T11:14:02;97678.03;;;14.57;49.83
85023;BME280;75348;43.126;-2.538;2024-03-08T11:19:05;97697.94;;;13.26;53.31
85023;BME280;75348;43.126;-2.538;2024-03-08T11:21:32;97702.84;;;13.29;52.48
85023;BME280;75348;43.126;-2.538;2024-03-08T11:24:01;97678.53;;;13.08;53.93
85023;BME280;75348;43.126;-2.538;2024-03-08T11:27:05;97709.28;;;13.39;52.86
85023;BME280;75348;43.126;-2.538;2024-03-08T11:29:34;97690.63;;;13.04;52.38
85023;BME280;75348;43.126;-2.538;2024-03-08T11:32:17;97707.78;;;13.26;51.64
85023;BME280;75348;43.126;-2.538;2024-03-08T11:34:49;97686.59;;;13.19;50.12
85023;BME280;75348;43.126;-2.538;2024-03-08T11:37:18;97701.50;;;13.02;52.63
85023;BME280;75348;43.126;-2.538;2024-03-08T11:39:54;97719.25;;;13.08;53.08
85023;BME280;75348;43.126;-2.538;2024-03-08T11:42:31;97700.97;;;12.94;53.24
85023;BME280;75348;43.126;-2.538;2024-03-08T11:44:58;97719.16;;;12.73;53.06
85023;BME280;75348;43.126;-2.538;2024-03-08T11:47:25;97716.41;;;12.86;52.70
85023;BME280;75348;43.126;-2.538;2024-03-08T11:49:53;97712.59;;;13.17;53.29
85023;BME280;75348;43.126;-2.538;2024-03-08T11:52:20;97703.78;;;13.81;51.51
85023;BME280;75348;43.126;-2.538;2024-03-08T11:54:51;97705.06;;;14.08;50.69
85023;BME280;75348;43.126;-2.538;2024-03-08T11:57:24;97711.34;;;13.96;51.92
85023;BME280;75348;43.126;-2.538;2024-03-08T11:59:52;97705.16;;;14.54;48.08
85023;BME280;75348;43.126;-2.538;2024-03-08T12:02:23;97724.00;;;14.00;49.59
85023;BME280;75348;43.126;-2.538;2024-03-08T12:04:58;97706.03;;;13.67;49.22
85023;BME280;75348;43.126;-2.538;2024-03-08T12:07:27;97710.34;;;13.50;49.85
85023;BME280;75348;43.126;-2.538;2024-03-08T12:10:14;97705.91;;;14.20;48.53
85023;BME280;75348;43.126;-2.538;2024-03-08T12:12:48;97742.28;;;13.68;49.81
85023;BME280;75348;43.126;-2.538;2024-03-08T12:15:16;97686.09;;;13.58;50.29
85023;BME280;75348;43.126;-2.538;2024-03-08T12:17:47;97694.25;;;13.45;49.78
85023;BME280;75348;43.126;-2.538;2024-03-08T12:20:24;97702.84;;;13.29;51.86
85023;BME280;75348;43.126;-2.538;2024-03-08T12:22:53;97667.22;;;13.59;50.35
85023;BME280;75348;43.126;-2.538;2024-03-08T12:25:20;97649.22;;;13.43;51.54
85023;BME280;75348;43.126;-2.538;2024-03-08T12:27:48;97654.00;;;13.53;50.98
85023;BME280;75348;43.126;-2.538;2024-03-08T12:30:22;97651.56;;;14.10;51.09
85023;BME280;75348;43.126;-2.538;2024-03-08T12:32:58;97650.25;;;13.72;50.88
85023;BME280;75348;43.126;-2.538;2024-03-08T12:35:27;97659.91;;;13.55;51.73
85023;BME280;75348;43.126;-2.538;2024-03-08T12:37:55;97658.63;;;13.46;52.55
85023;BME280;75348;43.126;-2.538;2024-03-08T12:40:30;97651.88;;;13.43;52.16
85023;BME280;75348;43.126;-2.538;2024-03-08T12:42:59;97647.84;;;13.41;52.63
85023;BME280;75348;43.126;-2.538;2024-03-08T12:45:26;97643.03;;;13.61;52.11
85023;BME280;75348;43.126;-2.538;2024-03-08T12:47:54;97645.94;;;13.88;52.69
85023;BME280;75348;43.126;-2.538;2024-03-08T12:50:22;97676.63;;;14.31;49.89
85023;BME280;75348;43.126;-2.538;2024-03-08T12:52:51;97673.41;;;14.41;49.43
85023;BME280;75348;43.126;-2.538;2024-03-08T12:55:22;97681.69;;;13.81;50.90
85023;BME280;75348;43.126;-2.538;2024-03-08T12:57:49;97686.81;;;13.94;50.14
85023;BME280;75348;43.126;-2.538;2024-03-08T13:00:16;97669.28;;;13.86;49.86
85023;BME280;75348;43.126;-2.538;2024-03-08T13:02:46;97656.38;;;14.01;50.28
85023;BME280;75348;43.126;-2.538;2024-03-08T13:05:14;97649.75;;;13.92;50.41
85023;BME280;75348;43.126;-2.538;2024-03-08T13:07:41;97662.94;;;14.28;50.61